Terminal Aerodrome Forecast
Issued by NWS

Home | Current Version | Previous Version | Text Only | Print | Product List | Glossary On
Versions: 1 2 3 4 5 6 7 8 9 10 11 12 13 14 15 16 17 18 19 20 21 22 23 24 25 26 27 28 29 30 31 32 33 34 35
000
FTUS44 KFWD 202336
TAFGKY
TAF
KGKY 202336Z 2100/2124 18008KT P6SM SKC
     FM210600 25004KT 3SM BR SKC
     FM210900 32006KT 4SM BR SKC
     FM211400 33015KT P6SM SKC=

USA.gov is the U.S. government's official web portal to all federal, state and local government web resources and services.